Time;durP1;ratioP1;P1;durP2;ratioP2;P2;SDS_P1;SDS_P2;PMS_P1;PMS_P2;Temp;Humidity;BMP_temperature;BMP_pressure;BME280_temperature;BME280_humidity;BME280_pressure;Samples;Min_cycle;Max_cycle;Signal;HPM_P1;HPM_P2
2023/02/01 00:00:32;;;;;;;24.67;6.40;;;4.70;99.90;;;;;;5080338;28;20565;-69
2023/02/01 00:02:59;;;;;;;15.03;3.00;;;4.80;99.90;;;;;;5082082;28;20462;-67
2023/02/01 00:05:26;;;;;;;7.67;2.67;;;4.80;99.90;;;;;;5079590;28;20536;-69
2023/02/01 00:07:53;;;;;;;14.83;3.90;;;4.70;99.90;;;;;;5078687;28;20521;-68
2023/02/01 00:10:20;;;;;;;15.97;3.10;;;4.60;99.90;;;;;;5078147;28;20454;-70
2023/02/01 00:12:47;;;;;;;11.53;2.90;;;4.50;99.90;;;;;;5078188;28;20541;-68
2023/02/01 00:15:14;;;;;;;15.27;3.53;;;4.40;99.90;;;;;;5079097;28;20541;-69
2023/02/01 00:17:42;;;;;;;12.70;4.37;;;4.40;99.90;;;;;;5079049;28;20549;-69
2023/02/01 00:20:10;;;;;;;18.23;3.70;;;4.30;99.90;;;;;;5079104;28;20522;-70
2023/02/01 00:22:37;;;;;;;15.17;4.10;;;4.30;99.90;;;;;;5078406;28;20785;-68
2023/02/01 00:25:05;;;;;;;15.20;3.20;;;4.40;99.90;;;;;;5079205;28;20945;-67
2023/02/01 00:27:32;;;;;;;18.03;3.47;;;4.40;99.90;;;;;;5078984;28;20545;-69
2023/02/01 00:29:58;;;;;;;18.80;3.50;;;4.40;99.90;;;;;;5078819;28;20517;-67
2023/02/01 00:32:25;;;;;;;18.20;4.33;;;4.50;99.90;;;;;;5078997;28;20458;-67
2023/02/01 00:34:54;;;;;;;13.23;3.43;;;4.50;99.90;;;;;;5080404;28;20551;-68
2023/02/01 00:37:21;;;;;;;19.80;3.63;;;4.50;99.90;;;;;;5079320;28;20545;-68
2023/02/01 00:39:49;;;;;;;15.83;3.50;;;4.60;99.90;;;;;;5079988;28;20957;-68
2023/02/01 00:42:16;;;;;;;10.40;3.07;;;4.70;99.90;;;;;;5079883;28;20478;-68
2023/02/01 00:44:43;;;;;;;12.27;2.60;;;4.70;99.90;;;;;;5079812;28;20500;-68
2023/02/01 00:47:10;;;;;;;11.80;3.97;;;4.70;99.90;;;;;;5079158;28;20546;-67
2023/02/01 00:49:36;;;;;;;20.13;4.80;;;4.70;99.90;;;;;;5079418;28;20455;-69
2023/02/01 00:52:05;;;;;;;12.00;3.63;;;4.80;99.90;;;;;;5078909;28;20461;-69
2023/02/01 00:54:32;;;;;;;10.53;2.97;;;4.80;99.90;;;;;;5079202;28;20549;-68
2023/02/01 00:56:59;;;;;;;17.90;3.47;;;4.80;99.90;;;;;;5077248;28;20465;-70
2023/02/01 00:59:25;;;;;;;9.13;2.53;;;4.80;99.90;;;;;;5077968;28;20553;-69
2023/02/01 01:01:52;;;;;;;13.40;3.40;;;4.80;99.90;;;;;;5078256;28;20973;-69
2023/02/01 01:04:19;;;;;;;8.10;2.40;;;4.80;99.90;;;;;;5078493;28;20664;-68
2023/02/01 01:06:46;;;;;;;9.63;2.60;;;4.80;99.90;;;;;;5077991;28;20553;-69
2023/02/01 01:09:14;;;;;;;12.43;3.50;;;4.80;99.90;;;;;;5077281;28;20537;-68
2023/02/01 01:11:41;;;;;;;15.23;3.67;;;4.70;99.90;;;;;;5076761;28;20488;-68
2023/02/01 01:14:09;;;;;;;17.53;3.23;;;4.70;99.90;;;;;;5076185;28;20549;-68
2023/02/01 01:16:37;;;;;;;10.67;2.57;;;4.70;99.90;;;;;;5077572;28;20465;-68
2023/02/01 01:19:04;;;;;;;9.07;2.80;;;4.60;99.90;;;;;;5077867;28;20461;-69
2023/02/01 01:21:31;;;;;;;10.20;2.77;;;4.60;99.90;;;;;;5079737;28;20559;-68
2023/02/01 01:23:58;;;;;;;7.50;2.37;;;4.60;99.90;;;;;;5079247;28;20534;-68
2023/02/01 01:26:28;;;;;;;7.33;2.80;;;4.60;99.90;;;;;;5080261;28;20553;-67
2023/02/01 01:28:56;;;;;;;16.60;3.27;;;4.60;99.90;;;;;;5080348;28;20536;-68
2023/02/01 01:31:24;;;;;;;17.27;4.27;;;4.60;99.90;;;;;;5080329;28;20456;-69
2023/02/01 01:33:53;;;;;;;15.47;3.23;;;4.60;99.90;;;;;;5081143;28;20464;-69
2023/02/01 01:36:21;;;;;;;12.90;2.90;;;4.60;99.90;;;;;;5079414;28;20474;-67
2023/02/01 01:38:48;;;;;;;18.20;3.63;;;4.60;99.90;;;;;;5079531;28;20599;-69
2023/02/01 01:41:18;;;;;;;14.67;3.17;;;4.60;99.90;;;;;;5078812;28;20489;-68
2023/02/01 01:43:54;;;;;;;11.00;2.97;;;4.60;99.90;;;;;;5079606;28;20573;-68
2023/02/01 01:46:23;;;;;;;13.27;3.03;;;4.60;99.90;;;;;;5079581;28;20903;-68
2023/02/01 01:48:54;;;;;;;15.93;2.77;;;4.60;99.90;;;;;;5078428;28;20994;-69
2023/02/01 01:51:25;;;;;;;9.90;2.40;;;4.60;99.90;;;;;;5079943;28;20449;-68
2023/02/01 01:53:58;;;;;;;6.70;2.67;;;4.60;99.90;;;;;;5079681;28;20923;-69
2023/02/01 01:56:26;;;;;;;9.83;3.20;;;4.70;99.90;;;;;;5080642;28;20505;-69
2023/02/01 01:58:55;;;;;;;10.80;3.07;;;4.60;99.90;;;;;;5079904;28;20458;-67
2023/02/01 02:01:22;;;;;;;8.50;2.23;;;4.70;99.90;;;;;;5081753;28;20786;-68
2023/02/01 02:03:49;;;;;;;13.53;3.97;;;4.70;99.90;;;;;;5083567;28;20545;-68
2023/02/01 02:06:26;;;;;;;10.60;2.90;;;4.70;99.90;;;;;;5083514;28;20493;-69
2023/02/01 02:08:53;;;;;;;19.40;2.90;;;4.80;99.90;;;;;;5083347;28;20882;-67
2023/02/01 02:11:20;;;;;;;10.00;2.70;;;4.80;99.90;;;;;;5083279;28;20458;-68
2023/02/01 02:13:52;;;;;;;12.73;3.43;;;4.80;99.90;;;;;;5082867;28;20828;-69
2023/02/01 02:16:43;;;;;;;10.00;3.07;;;4.80;99.90;;;;;;5082616;28;20469;-69
2023/02/01 02:19:36;;;;;;;12.13;2.67;;;4.80;99.90;;;;;;5082364;28;20951;-68
2023/02/01 02:22:26;;;;;;;15.30;3.17;;;4.90;99.90;;;;;;5083155;28;20476;-68
2023/02/01 02:25:29;;;;;;;14.33;3.13;;;4.90;99.90;;;;;;5082939;28;20966;-69
2023/02/01 02:28:05;;;;;;;9.80;2.83;;;4.90;99.90;;;;;;5081158;28;20541;-69
2023/02/01 02:31:07;;;;;;;14.77;3.47;;;4.90;99.90;;;;;;5081484;28;20516;-68
2023/02/01 02:33:52;;;;;;;12.73;2.90;;;4.90;99.90;;;;;;5081702;28;20506;-69
2023/02/01 02:36:32;;;;;;;13.03;2.57;;;4.90;99.90;;;;;;5082400;28;20507;-68
2023/02/01 02:39:08;;;;;;;12.43;2.97;;;4.90;99.90;;;;;;5082662;28;20824;-68
2023/02/01 02:47:27;;;;;;;9.83;3.17;;;4.90;99.90;;;;;;5083205;28;20847;-69
2023/02/01 02:55:42;;;;;;;13.47;2.90;;;4.90;99.90;;;;;;5082176;28;20798;-69
2023/02/01 03:06:27;;;;;;;19.90;3.83;;;4.90;99.90;;;;;;5081335;28;20422;-67
2023/02/01 03:08:58;;;;;;;15.90;3.60;;;5.00;99.90;;;;;;5081382;28;20505;-68
2023/02/01 03:12:55;;;;;;;10.20;2.60;;;5.00;99.90;;;;;;5079803;28;20434;-68
2023/02/01 03:14:15;;;;;;;15.13;2.90;;;5.00;99.90;;;;;;5080247;28;20439;-68
2023/02/01 03:16:48;;;;;;;12.67;3.23;;;4.90;99.90;;;;;;5080091;28;20458;-69
2023/02/01 03:19:20;;;;;;;17.07;4.30;;;5.00;99.90;;;;;;5079686;28;20509;-68
2023/02/01 03:21:51;;;;;;;13.70;3.60;;;4.90;99.90;;;;;;5081083;28;20567;-69
2023/02/01 03:24:32;;;;;;;16.10;3.17;;;5.00;99.90;;;;;;5081388;28;20448;-69
2023/02/01 03:27:05;;;;;;;14.63;2.97;;;5.00;99.90;;;;;;5080277;28;20468;-68
2023/02/01 03:29:37;;;;;;;15.83;2.50;;;5.00;99.90;;;;;;5080015;28;20443;-68
2023/02/01 03:32:05;;;;;;;22.73;4.00;;;5.00;99.90;;;;;;5079535;28;20481;-68
2023/02/01 03:34:31;;;;;;;22.47;4.20;;;4.90;99.90;;;;;;5080112;28;20454;-69
2023/02/01 03:37:03;;;;;;;14.63;4.20;;;4.90;99.90;;;;;;5079203;28;20464;-69
2023/02/01 03:39:35;;;;;;;14.83;3.53;;;5.00;99.90;;;;;;5078420;28;20445;-69
2023/02/01 03:42:06;;;;;;;14.93;3.10;;;5.00;99.90;;;;;;5079134;28;20476;-68
2023/02/01 03:44:35;;;;;;;13.93;3.67;;;5.00;99.90;;;;;;5078412;28;20482;-68
2023/02/01 03:47:07;;;;;;;10.40;2.77;;;5.00;99.90;;;;;;5078950;28;20539;-68
2023/02/01 03:49:37;;;;;;;18.93;3.37;;;5.00;99.90;;;;;;5079244;28;20447;-69
2023/02/01 03:52:09;;;;;;;18.90;3.83;;;5.00;99.90;;;;;;5079313;28;20500;-69
2023/02/01 03:54:37;;;;;;;11.20;3.20;;;5.00;99.90;;;;;;5078767;28;20442;-69
2023/02/01 03:57:08;;;;;;;16.80;3.70;;;5.00;99.90;;;;;;5079313;28;20790;-68
2023/02/01 03:59:39;;;;;;;19.77;3.67;;;5.00;99.90;;;;;;5078856;28;20443;-68
2023/02/01 04:02:06;;;;;;;11.87;3.13;;;5.10;99.90;;;;;;5078667;28;20472;-69
2023/02/01 04:04:34;;;;;;;16.60;3.47;;;5.00;99.90;;;;;;5079544;28;20545;-69
2023/02/01 04:07:01;;;;;;;16.40;4.00;;;5.10;99.90;;;;;;5078805;28;20545;-69
2023/02/01 04:09:29;;;;;;;22.20;3.20;;;5.10;99.90;;;;;;5080255;28;20549;-68
2023/02/01 04:11:56;;;;;;;12.27;3.00;;;5.10;99.90;;;;;;5079006;28;20482;-69
2023/02/01 04:14:22;;;;;;;15.83;3.40;;;5.10;99.90;;;;;;5079627;28;20541;-68
2023/02/01 04:16:49;;;;;;;14.60;3.03;;;5.10;99.90;;;;;;5079120;28;21017;-69
2023/02/01 04:19:16;;;;;;;16.93;3.50;;;5.10;99.90;;;;;;5079268;28;20490;-67
2023/02/01 04:21:43;;;;;;;15.07;3.47;;;5.10;99.90;;;;;;5079305;28;20536;-68
2023/02/01 04:24:10;;;;;;;12.53;3.30;;;5.20;99.90;;;;;;5078881;28;20454;-69
2023/02/01 04:26:38;;;;;;;17.00;4.10;;;5.20;99.90;;;;;;5079648;28;20519;-69
2023/02/01 04:29:05;;;;;;;14.27;4.00;;;5.20;99.90;;;;;;5079705;28;20454;-68
2023/02/01 04:31:32;;;;;;;15.80;3.23;;;5.20;99.90;;;;;;5078741;28;20454;-68
2023/02/01 04:33:59;;;;;;;16.57;3.33;;;5.30;99.90;;;;;;5080418;28;20497;-68
2023/02/01 04:36:26;;;;;;;16.50;4.07;;;5.30;99.90;;;;;;5080305;28;20541;-68
2023/02/01 04:38:53;;;;;;;14.07;2.93;;;5.30;99.90;;;;;;5080596;28;20557;-68
2023/02/01 04:41:20;;;;;;;12.90;3.33;;;5.30;99.90;;;;;;5080206;28;20541;-68
2023/02/01 04:43:49;;;;;;;10.20;3.00;;;5.40;99.90;;;;;;5078661;28;20494;-69
2023/02/01 04:46:16;;;;;;;16.13;3.33;;;5.40;99.90;;;;;;5078655;28;20966;-69
2023/02/01 04:48:43;;;;;;;17.27;3.17;;;5.40;99.90;;;;;;5079019;28;20792;-69
2023/02/01 04:51:10;;;;;;;16.87;4.20;;;5.40;99.90;;;;;;5079418;28;20991;-69
2023/02/01 04:53:37;;;;;;;13.23;3.07;;;5.50;99.90;;;;;;5080065;28;20451;-69
2023/02/01 04:56:06;;;;;;;16.63;3.13;;;5.50;99.90;;;;;;5080376;28;20454;-69
2023/02/01 04:58:32;;;;;;;12.33;3.67;;;5.50;99.90;;;;;;5079400;28;20519;-69
2023/02/01 05:01:04;;;;;;;10.43;4.07;;;5.50;99.90;;;;;;5079103;28;20793;-70
2023/02/01 05:03:31;;;;;;;12.33;3.90;;;5.50;99.90;;;;;;5078063;28;20478;-69
2023/02/01 05:05:57;;;;;;;17.70;3.83;;;5.60;99.90;;;;;;5078521;28;20545;-68
2023/02/01 05:08:25;;;;;;;15.83;3.33;;;5.60;99.90;;;;;;5078998;28;20468;-69
2023/02/01 05:10:52;;;;;;;16.13;4.27;;;5.60;99.90;;;;;;5079068;28;20519;-69
2023/02/01 05:16:05;;;;;;;17.57;4.00;;;5.60;99.90;;;;;;5080732;28;20449;-68
2023/02/01 05:18:32;;;;;;;13.83;3.30;;;5.60;99.90;;;;;;5079025;28;20501;-69
2023/02/01 05:20:59;;;;;;;18.47;4.30;;;5.70;99.90;;;;;;5077877;28;20489;-70
2023/02/01 05:23:26;;;;;;;11.03;4.00;;;5.70;99.90;;;;;;5077646;28;20482;-69
2023/02/01 05:25:52;;;;;;;12.23;3.40;;;5.70;99.90;;;;;;5077518;28;20470;-69
2023/02/01 05:28:19;;;;;;;12.53;3.40;;;5.70;99.90;;;;;;5077415;28;20468;-68
2023/02/01 05:30:46;;;;;;;20.83;3.87;;;5.70;99.90;;;;;;5077076;28;20481;-68
2023/02/01 05:33:14;;;;;;;17.90;3.40;;;5.70;99.90;;;;;;5077390;28;20970;-69
2023/02/01 05:35:41;;;;;;;16.57;3.63;;;5.70;99.90;;;;;;5077638;28;20497;-68
2023/02/01 05:38:08;;;;;;;8.47;2.83;;;5.70;99.90;;;;;;5077452;28;20540;-67
2023/02/01 05:40:35;;;;;;;14.83;3.53;;;5.70;99.90;;;;;;5077309;28;20485;-69
2023/02/01 05:43:02;;;;;;;12.43;4.00;;;5.70;99.90;;;;;;5076426;28;20569;-68
2023/02/01 05:45:29;;;;;;;14.13;4.00;;;5.70;99.90;;;;;;5076430;28;20899;-68
2023/02/01 05:47:55;;;;;;;11.50;3.87;;;5.70;99.90;;;;;;5077457;28;20533;-70
2023/02/01 05:50:24;;;;;;;15.43;3.90;;;5.70;99.90;;;;;;5077809;28;20791;-68
2023/02/01 05:52:50;;;;;;;12.23;3.57;;;5.70;99.90;;;;;;5076637;28;20556;-67
2023/02/01 05:55:17;;;;;;;14.77;3.80;;;5.80;99.90;;;;;;5077948;28;20490;-67
2023/02/01 05:57:44;;;;;;;18.70;4.30;;;5.80;99.90;;;;;;5077988;28;20818;-68
2023/02/01 06:00:12;;;;;;;16.43;3.40;;;5.80;99.90;;;;;;5077031;28;20468;-68
2023/02/01 06:02:39;;;;;;;16.60;3.33;;;5.70;99.90;;;;;;5077348;28;20479;-69
2023/02/01 06:05:07;;;;;;;14.70;3.17;;;5.70;99.90;;;;;;5077228;28;20541;-69
2023/02/01 06:07:35;;;;;;;17.40;3.03;;;5.70;99.90;;;;;;5077050;28;20826;-68
2023/02/01 06:10:02;;;;;;;17.80;4.00;;;5.80;99.90;;;;;;5077866;28;20460;-68
2023/02/01 06:12:29;;;;;;;8.80;3.43;;;5.70;99.90;;;;;;5077603;28;20450;-68
2023/02/01 06:14:55;;;;;;;19.43;4.13;;;5.70;99.90;;;;;;5078281;28;20553;-69
2023/02/01 06:17:22;;;;;;;16.50;4.20;;;5.70;99.90;;;;;;5077349;28;20538;-68
2023/02/01 06:19:49;;;;;;;15.43;3.87;;;5.70;99.90;;;;;;5078078;28;20454;-68
2023/02/01 06:22:16;;;;;;;11.97;4.10;;;5.60;99.90;;;;;;5077643;28;20846;-69
2023/02/01 06:24:44;;;;;;;12.30;2.90;;;5.60;99.90;;;;;;5077297;28;20482;-69
2023/02/01 06:27:11;;;;;;;14.93;3.50;;;5.50;99.90;;;;;;5078128;28;20469;-70
2023/02/01 06:29:38;;;;;;;21.00;4.63;;;5.40;99.90;;;;;;5078043;28;20476;-68
2023/02/01 06:32:05;;;;;;;12.73;3.53;;;5.30;99.90;;;;;;5078047;28;20553;-68
2023/02/01 06:34:32;;;;;;;14.53;3.80;;;5.20;99.90;;;;;;5079485;28;20541;-68
2023/02/01 06:36:59;;;;;;;11.40;3.70;;;5.20;99.90;;;;;;5079000;28;20525;-67
2023/02/01 06:39:27;;;;;;;14.80;3.43;;;5.10;99.90;;;;;;5078232;28;20933;-68
2023/02/01 06:41:55;;;;;;;12.77;3.07;;;5.10;99.90;;;;;;5079077;28;20454;-69
2023/02/01 06:44:22;;;;;;;11.17;3.80;;;5.00;99.90;;;;;;5079465;28;20569;-68
2023/02/01 06:46:49;;;;;;;17.60;5.23;;;5.00;99.90;;;;;;5079861;28;20460;-67
2023/02/01 06:49:16;;;;;;;15.50;4.07;;;5.00;99.90;;;;;;5082737;28;20492;-67
2023/02/01 06:51:42;;;;;;;20.50;5.10;;;4.90;99.90;;;;;;5062504;28;20451;-69
2023/02/01 06:54:09;;;;;;;17.37;4.17;;;4.90;99.90;;;;;;5064113;28;20455;-68
2023/02/01 06:56:36;;;;;;;13.03;3.90;;;4.90;99.90;;;;;;5063230;28;20546;-68
2023/02/01 06:59:06;;;;;;;14.90;3.97;;;4.90;99.90;;;;;;5063175;28;20459;-68
2023/02/01 07:01:33;;;;;;;19.13;5.43;;;5.00;99.90;;;;;;5061311;28;20473;-69
2023/02/01 07:04:00;;;;;;;18.73;4.60;;;4.90;99.90;;;;;;5059073;28;20479;-69
2023/02/01 07:06:27;;;;;;;14.60;4.20;;;5.00;99.90;;;;;;5058613;28;20461;-69
2023/02/01 07:08:55;;;;;;;22.10;4.30;;;5.00;99.90;;;;;;5058192;28;20546;-69
2023/02/01 07:11:22;;;;;;;16.10;3.60;;;5.00;99.90;;;;;;5058691;28;20931;-67
2023/02/01 07:13:50;;;;;;;15.10;4.00;;;5.10;99.90;;;;;;5058333;28;20461;-67
2023/02/01 07:16:20;;;;;;;18.00;3.90;;;5.20;99.90;;;;;;5062666;28;20932;-69
2023/02/01 07:18:47;;;;;;;11.30;3.20;;;5.20;99.90;;;;;;5062723;28;20522;-68
2023/02/01 07:21:14;;;;;;;12.80;4.40;;;5.20;99.90;;;;;;5062876;28;20459;-68
2023/02/01 07:23:41;;;;;;;14.13;4.10;;;5.20;99.90;;;;;;5061225;28;21015;-67
2023/02/01 07:26:10;;;;;;;10.67;3.77;;;5.10;99.90;;;;;;5062686;28;20762;-68
2023/02/01 07:28:37;;;;;;;18.07;3.50;;;5.00;99.90;;;;;;5063950;28;20477;-67
2023/02/01 07:31:05;;;;;;;18.50;4.00;;;5.00;99.90;;;;;;5058006;28;20804;-69
2023/02/01 07:33:34;;;;;;;13.67;3.87;;;4.90;99.90;;;;;;5060579;28;20534;-67
2023/02/01 07:36:03;;;;;;;19.80;4.40;;;4.90;99.90;;;;;;5060590;28;20491;-69
2023/02/01 07:38:30;;;;;;;16.97;4.10;;;4.80;99.90;;;;;;5061223;28;20942;-68
2023/02/01 07:41:00;;;;;;;11.93;4.47;;;4.80;99.90;;;;;;5060784;28;20455;-69
2023/02/01 07:43:27;;;;;;;15.27;5.13;;;4.80;99.90;;;;;;5061801;28;20581;-67
2023/02/01 07:45:55;;;;;;;15.33;5.13;;;4.90;99.90;;;;;;5062026;28;20466;-67
2023/02/01 07:48:23;;;;;;;17.80;4.63;;;4.80;99.90;;;;;;5061935;28;20789;-69
2023/02/01 07:50:59;;;;;;;17.93;4.60;;;4.80;99.90;;;;;;5061254;28;20465;-68
2023/02/01 07:53:26;;;;;;;15.63;4.73;;;4.80;99.90;;;;;;5063617;28;20478;-70
2023/02/01 07:55:52;;;;;;;25.80;4.73;;;4.80;99.90;;;;;;5062058;28;20516;-70
2023/02/01 07:58:19;;;;;;;13.03;4.00;;;4.70;99.90;;;;;;5061218;28;20452;-70
2023/02/01 08:03:30;;;;;;;10.90;4.90;;;4.50;99.90;;;;;;5060459;28;20939;-71
2023/02/01 08:05:59;;;;;;;15.37;5.33;;;4.40;99.90;;;;;;5060450;28;20943;-70
2023/02/01 08:08:25;;;;;;;12.10;3.93;;;4.30;99.90;;;;;;5061931;28;20527;-70
2023/02/01 08:10:57;;;;;;;12.17;4.17;;;4.10;99.90;;;;;;5058329;28;20461;-70
2023/02/01 08:13:24;;;;;;;20.03;5.33;;;4.10;99.90;;;;;;5059889;28;20550;-70
2023/02/01 08:15:51;;;;;;;9.60;4.40;;;4.00;99.90;;;;;;5056654;28;20455;-70
2023/02/01 08:18:18;;;;;;;8.70;4.50;;;4.00;99.90;;;;;;5056448;28;20455;-68
2023/02/01 08:20:45;;;;;;;12.57;4.40;;;4.00;99.90;;;;;;5056189;28;20458;-70
2023/02/01 08:23:13;;;;;;;19.03;4.30;;;4.00;99.90;;;;;;5058569;28;20468;-69
2023/02/01 08:25:40;;;;;;;13.50;5.63;;;3.90;99.90;;;;;;5058887;28;20469;-68
2023/02/01 08:28:08;;;;;;;12.90;5.87;;;3.90;99.90;;;;;;5058528;28;20881;-69
2023/02/01 08:30:34;;;;;;;16.37;5.80;;;3.90;99.90;;;;;;5059081;28;20786;-70
2023/02/01 08:33:01;;;;;;;10.13;4.67;;;3.90;99.90;;;;;;5057559;28;20466;-68
2023/02/01 08:35:28;;;;;;;10.93;4.27;;;3.90;99.90;;;;;;5057269;28;20765;-69
2023/02/01 08:37:55;;;;;;;7.10;4.50;;;3.90;99.90;;;;;;5056130;28;20553;-67
2023/02/01 08:40:23;;;;;;;9.67;4.87;;;3.90;99.90;;;;;;5056076;28;20799;-68
2023/02/01 08:42:53;;;;;;;11.40;4.50;;;3.90;99.90;;;;;;5055707;28;20487;-70
2023/02/01 08:45:23;;;;;;;10.07;4.33;;;3.90;99.90;;;;;;5055368;28;20463;-69
2023/02/01 08:47:50;;;;;;;4.90;3.77;;;3.90;99.90;;;;;;5055944;28;20454;-69
2023/02/01 08:50:18;;;;;;;8.90;4.20;;;3.90;99.90;;;;;;5056366;28;20899;-68
2023/02/01 08:52:45;;;;;;;8.33;3.57;;;3.90;99.90;;;;;;5055494;28;20546;-69
2023/02/01 08:55:12;;;;;;;10.23;4.37;;;3.80;99.90;;;;;;5056674;28;20542;-69
2023/02/01 08:57:41;;;;;;;11.33;3.80;;;3.80;99.90;;;;;;5056402;28;20542;-69
2023/02/01 09:00:09;;;;;;;9.50;4.97;;;3.80;99.90;;;;;;5056002;28;20508;-68
2023/02/01 09:02:36;;;;;;;14.03;4.40;;;3.80;99.90;;;;;;5056078;28;20831;-69
2023/02/01 09:05:04;;;;;;;12.30;3.87;;;3.80;99.90;;;;;;5056616;28;20475;-70
2023/02/01 09:07:31;;;;;;;11.00;4.50;;;3.80;99.90;;;;;;5056085;28;20462;-68
2023/02/01 09:10:00;;;;;;;7.50;3.60;;;3.80;99.90;;;;;;5055690;28;20483;-69
2023/02/01 09:12:28;;;;;;;9.73;4.00;;;3.90;99.90;;;;;;5055553;28;20473;-69
2023/02/01 09:14:56;;;;;;;6.63;3.33;;;3.90;99.90;;;;;;5057665;28;20490;-70
2023/02/01 09:17:24;;;;;;;9.60;3.10;;;3.90;99.90;;;;;;5056237;28;20451;-70
2023/02/01 09:19:50;;;;;;;4.77;3.40;;;3.90;99.90;;;;;;5057184;28;20847;-69
2023/02/01 09:22:17;;;;;;;8.63;4.30;;;4.00;99.90;;;;;;5055986;28;20455;-70
2023/02/01 09:24:44;;;;;;;7.20;3.60;;;4.00;99.90;;;;;;5056089;28;20483;-70
2023/02/01 09:27:11;;;;;;;4.33;2.40;;;4.10;99.90;;;;;;5056384;28;20459;-69
2023/02/01 09:29:38;;;;;;;6.93;2.90;;;4.10;99.90;;;;;;5056641;28;20542;-70
2023/02/01 09:32:07;;;;;;;11.57;2.70;;;4.10;99.90;;;;;;5055086;28;20562;-69
2023/02/01 09:34:34;;;;;;;4.13;2.40;;;4.10;99.90;;;;;;5055823;28;20508;-70
2023/02/01 09:37:01;;;;;;;4.57;2.17;;;4.20;99.90;;;;;;5055773;28;20661;-69
2023/02/01 09:39:29;;;;;;;3.97;2.00;;;4.20;99.90;;;;;;5055285;28;20557;-69
2023/02/01 09:42:06;;;;;;;5.83;2.80;;;4.30;99.90;;;;;;5054931;28;20524;-69
2023/02/01 09:44:54;;;;;;;3.20;1.90;;;4.30;99.90;;;;;;5054899;28;20490;-68
2023/02/01 09:47:25;;;;;;;6.20;1.80;;;4.30;99.90;;;;;;5054655;28;20943;-68
2023/02/01 09:49:56;;;;;;;6.40;1.87;;;4.30;99.90;;;;;;5055952;28;20470;-68
2023/02/01 09:52:30;;;;;;;6.90;1.80;;;4.30;99.90;;;;;;5055520;28;20530;-69
2023/02/01 09:55:02;;;;;;;5.33;1.67;;;4.40;99.90;;;;;;5056077;28;20467;-69
2023/02/01 09:57:42;;;;;;;4.90;1.77;;;4.40;99.90;;;;;;5056821;28;20485;-68
2023/02/01 10:00:18;;;;;;;4.90;1.90;;;4.30;99.90;;;;;;5056877;28;20975;-69
2023/02/01 10:02:47;;;;;;;5.30;1.83;;;4.40;99.90;;;;;;5056919;28;20469;-68
2023/02/01 10:05:16;;;;;;;2.70;1.70;;;4.40;99.90;;;;;;5056699;28;20514;-69
2023/02/01 10:07:56;;;;;;;3.43;1.43;;;4.40;99.90;;;;;;5056085;28;20952;-68
2023/02/01 10:10:31;;;;;;;4.17;1.77;;;4.40;99.90;;;;;;5055715;28;20522;-69
2023/02/01 10:13:21;;;;;;;3.30;1.70;;;4.40;99.90;;;;;;5055779;28;20443;-68
2023/02/01 10:15:57;;;;;;;10.13;1.93;;;4.30;99.90;;;;;;5056567;28;20535;-69
2023/02/01 10:18:53;;;;;;;3.60;1.77;;;4.20;99.90;;;;;;5057599;28;20442;-71
2023/02/01 10:21:31;;;;;;;2.87;1.70;;;4.20;99.90;;;;;;5058704;28;20461;-68
2023/02/01 10:24:17;;;;;;;4.00;2.57;;;4.20;99.90;;;;;;5060601;28;20509;-69
2023/02/01 10:26:47;;;;;;;4.40;1.90;;;4.10;99.90;;;;;;5059929;28;20443;-69
2023/02/01 10:29:19;;;;;;;7.23;1.80;;;4.20;99.90;;;;;;5059911;28;20529;-69
2023/02/01 10:31:46;;;;;;;6.73;2.30;;;4.20;99.90;;;;;;5059195;28;20720;-69
2023/02/01 10:34:21;;;;;;;4.60;2.20;;;4.20;99.90;;;;;;5058720;28;20911;-69
2023/02/01 10:36:55;;;;;;;5.83;2.60;;;4.30;99.90;;;;;;5060872;28;20918;-68
2023/02/01 10:39:22;;;;;;;4.70;2.13;;;4.30;99.90;;;;;;5060940;28;20736;-69
2023/02/01 10:41:49;;;;;;;6.27;3.20;;;4.40;99.90;;;;;;5059914;28;20644;-69
2023/02/01 10:44:19;;;;;;;8.23;2.40;;;4.40;99.90;;;;;;5058629;28;20493;-69
2023/02/01 10:46:46;;;;;;;8.33;2.53;;;4.40;99.90;;;;;;5058400;28;20447;-69
2023/02/01 10:49:22;;;;;;;5.17;2.50;;;4.50;99.90;;;;;;5058655;28;20465;-69
2023/02/01 10:51:55;;;;;;;9.40;1.90;;;4.50;99.90;;;;;;5058736;28;20492;-69
2023/02/01 10:54:32;;;;;;;7.13;2.17;;;4.40;99.90;;;;;;5058709;28;20467;-68
2023/02/01 10:56:59;;;;;;;3.83;1.97;;;4.30;99.90;;;;;;5059923;28;20435;-69
2023/02/01 10:59:29;;;;;;;5.43;1.80;;;4.30;99.90;;;;;;5059413;28;20485;-68
2023/02/01 11:02:01;;;;;;;4.60;2.00;;;4.20;99.90;;;;;;5059780;28;20541;-68
2023/02/01 11:04:34;;;;;;;4.67;2.07;;;4.20;99.90;;;;;;5060753;28;20474;-69
2023/02/01 11:07:08;;;;;;;4.53;2.50;;;4.20;99.90;;;;;;5059778;28;20553;-70
2023/02/01 11:09:39;;;;;;;8.93;2.20;;;4.20;99.90;;;;;;5058674;28;20482;-69
2023/02/01 11:12:21;;;;;;;3.73;2.20;;;4.30;99.90;;;;;;5076421;28;20454;-69
2023/02/01 11:14:48;;;;;;;3.87;1.90;;;4.30;99.90;;;;;;5077934;28;20732;-69
2023/02/01 11:17:27;;;;;;;6.40;2.60;;;4.40;99.90;;;;;;5077118;28;20552;-69
2023/02/01 11:20:04;;;;;;;9.20;3.50;;;4.40;99.90;;;;;;5075085;28;20511;-68
2023/02/01 11:22:31;;;;;;;6.73;3.60;;;4.50;99.90;;;;;;5077093;28;20442;-67
2023/02/01 11:25:00;;;;;;;10.93;3.30;;;4.60;99.90;;;;;;5077049;28;20508;-69
2023/02/01 11:27:27;;;;;;;9.10;3.90;;;4.60;99.90;;;;;;5076990;28;20462;-68
2023/02/01 11:29:58;;;;;;;10.60;3.70;;;4.70;99.90;;;;;;5072329;28;20455;-68
2023/02/01 11:32:25;;;;;;;7.57;2.73;;;4.80;99.90;;;;;;5057240;28;20453;-69
2023/02/01 11:34:56;;;;;;;10.60;2.90;;;4.90;99.90;;;;;;5056577;28;20455;-68
2023/02/01 11:37:28;;;;;;;8.43;2.57;;;5.10;99.90;;;;;;5056781;28;20494;-69
2023/02/01 11:39:57;;;;;;;7.20;2.80;;;5.10;99.90;;;;;;5056474;28;20906;-69
2023/02/01 11:42:24;;;;;;;4.53;2.20;;;5.20;99.90;;;;;;5056815;28;20530;-68
2023/02/01 11:44:52;;;;;;;7.17;2.80;;;5.30;99.90;;;;;;5057307;28;20467;-68
2023/02/01 11:47:24;;;;;;;6.87;2.90;;;5.30;99.90;;;;;;5056872;28;20455;-68
2023/02/01 11:49:53;;;;;;;7.20;2.83;;;5.30;99.90;;;;;;5056665;28;20538;-68
2023/02/01 11:52:38;;;;;;;6.43;3.33;;;5.40;99.90;;;;;;5057125;28;20455;-66
2023/02/01 11:55:40;;;;;;;7.63;2.93;;;5.40;99.90;;;;;;5059633;28;20530;-68
2023/02/01 11:58:30;;;;;;;8.40;2.40;;;5.50;99.90;;;;;;5059434;28;20435;-67
2023/02/01 12:01:11;;;;;;;6.00;2.03;;;5.60;99.90;;;;;;5057873;28;20449;-68
2023/02/01 12:04:20;;;;;;;4.17;2.17;;;5.70;99.90;;;;;;5058370;28;20447;-67
2023/02/01 12:06:52;;;;;;;9.00;2.10;;;5.80;99.90;;;;;;5058115;28;20976;-68
2023/02/01 12:09:43;;;;;;;11.03;2.83;;;5.90;99.90;;;;;;5058467;28;21016;-67
2023/02/01 12:12:20;;;;;;;5.93;2.20;;;6.00;99.90;;;;;;5058181;28;20530;-67
2023/02/01 12:15:03;;;;;;;6.37;2.73;;;6.20;99.90;;;;;;5057614;28;20435;-68
2023/02/01 12:17:54;;;;;;;4.93;1.87;;;6.30;99.90;;;;;;5056505;28;20435;-67
2023/02/01 12:20:47;;;;;;;5.47;1.83;;;6.30;99.90;;;;;;5057108;28;20451;-67
2023/02/01 12:23:25;;;;;;;6.03;2.13;;;6.30;99.90;;;;;;5057936;28;20522;-68
2023/02/01 12:26:06;;;;;;;9.00;2.10;;;6.20;99.90;;;;;;5057671;28;20482;-67
2023/02/01 12:28:54;;;;;;;5.80;2.07;;;6.20;99.90;;;;;;5057707;28;20453;-67
2023/02/01 12:31:35;;;;;;;8.47;2.83;;;6.20;99.90;;;;;;5057648;28;20826;-66
2023/02/01 12:34:16;;;;;;;6.90;2.50;;;6.20;99.90;;;;;;5056913;28;20445;-67
2023/02/01 12:36:50;;;;;;;8.30;2.60;;;6.20;99.90;;;;;;5057132;28;20818;-68
2023/02/01 12:39:25;;;;;;;8.07;2.33;;;6.20;99.90;;;;;;5057340;28;20947;-67
2023/02/01 12:42:01;;;;;;;6.37;2.30;;;6.20;99.90;;;;;;5056518;28;20529;-68
2023/02/01 12:44:42;;;;;;;10.50;2.47;;;6.20;99.90;;;;;;5055325;28;20811;-66
2023/02/01 12:47:17;;;;;;;7.43;2.10;;;6.10;99.90;;;;;;5055892;28;20469;-68
2023/02/01 12:49:54;;;;;;;4.10;2.37;;;6.00;99.90;;;;;;5056028;28;20460;-67
2023/02/01 12:52:28;;;;;;;9.17;2.63;;;6.10;99.90;;;;;;5057018;28;20778;-67
2023/02/01 12:55:01;;;;;;;10.33;2.50;;;6.10;99.90;;;;;;5056494;28;20521;-67
2023/02/01 12:57:33;;;;;;;9.53;2.63;;;6.10;99.90;;;;;;5057042;28;20453;-66
2023/02/01 13:00:09;;;;;;;7.40;2.27;;;6.20;99.90;;;;;;5057008;28;20475;-69
2023/02/01 13:02:42;;;;;;;6.80;2.27;;;6.20;99.90;;;;;;5057688;28;20724;-68
2023/02/01 13:05:16;;;;;;;8.13;2.90;;;6.30;99.90;;;;;;5056774;28;20815;-67
2023/02/01 13:07:48;;;;;;;17.67;2.97;;;6.40;99.90;;;;;;5057566;28;20530;-67
2023/02/01 13:10:19;;;;;;;7.00;2.33;;;6.40;99.90;;;;;;5056547;28;20490;-68
2023/02/01 13:12:53;;;;;;;12.23;2.50;;;6.50;99.90;;;;;;5055935;28;20479;-68
2023/02/01 13:15:26;;;;;;;9.40;2.40;;;6.60;99.90;;;;;;5057840;28;20783;-69
2023/02/01 13:17:55;;;;;;;3.87;1.40;;;6.60;99.90;;;;;;5056419;28;20436;-68
2023/02/01 13:20:26;;;;;;;2.47;1.30;;;6.60;99.90;;;;;;5055256;28;20467;-68
2023/02/01 13:22:59;;;;;;;4.00;1.50;;;6.40;99.90;;;;;;5054886;28;20542;-67
2023/02/01 13:25:36;;;;;;;5.70;1.30;;;6.20;99.90;;;;;;5055259;28;20558;-68
2023/02/01 13:28:07;;;;;;;3.77;1.43;;;6.10;99.90;;;;;;5055093;28;20504;-68
2023/02/01 13:30:55;;;;;;;3.87;1.70;;;6.00;99.90;;;;;;5055241;28;20444;-68
2023/02/01 13:33:43;;;;;;;4.80;1.97;;;5.90;99.90;;;;;;5056135;28;20449;-68